Istria, Rumänien

03:01 PM EET am 19. Januar 2017 (GMT +0200)
M. Kogalniceanu | | Change Station

Höhe 335 ft 44.33 °N, 28.43 °E | Updated 31 minutes ago

Bedeckt
Bedeckt
25 °F
gefühlte 10 °F
N
22
Wind Wechselnd Wind aus Nord

Heute
Max. -- | schwach -- °F
--% Regenrisiko
Gestern
Max. -- | schwach -- °F
Precip. -- inch
Druck 30.57 inch
Sichtweite 6.2 Meilen
Wolken Bedeckt 3400 ft
Windchill 10 °F
Taupunkt 23 °F
Feuchtigkeit 93%
Regen 0.00 inch
Schneehöhe Nicht verfügbar..
7:35 AM 4:56 PM
Drittes Viertel, 54% visible
METAR LRCK 191230Z 01019KT 9999 OVC034 M04/M05 Q1035 NOSIG
Druck 30.57 inch
Sichtweite 6.2 Meilen
Wolken Bedeckt 3400 ft
Windchill 10 °F
Taupunkt 23 °F
Feuchtigkeit 93%
Regen 0.00 inch
Schneehöhe Nicht verfügbar..
7:35 AM 4:56 PM
Drittes Viertel, 54% visible
METAR LRCK 191230Z 01019KT 9999 OVC034 M04/M05 Q1035 NOSIG

Get Your Daily Forecast Email!

Thanks for signing up!

Be on the lookout for a verification email in your inbox.

You'll start receiving the daily forecast at 8 AM.

×

10-Day Weather Forecast

×

Almanac

Astronomie

Jan. 19, 2017 Aufgang Untergang
Genaue Zeit
Bürgerliche Dämmerung
Nautische Dämmerung
Astronomische Dämmerung
Mond
Länge des sichtbaren Lichts
Tageslänge
Tomorrow will be .
, % of the Moon is Illuminated

Heutige Rekorde

Country Highs Country Lows

Community

WunderPhotos

Upload Photos

1,962,540 Fotos hochgeladen!

WunderBlog® & News

Nearby

Luftqualität

  Luftqualität LQ Index Schadstoff
Not available.

Schneehöhe

Station Depth Höhe

Erdbebenaktivität

Stadt Distance Mag. Time & Date
Minimum magnitude displayed is 2.5.

küstennahe Wassertemperaturen

Ort Temperatur

Stations

Wetterstationen in der Umgebung

Stationsstandort Temp. Windchill Taupunkt Feuchtigkeit Wind Precip. Höhe Aktualisiert Art